sensor_id;sensor_type;location;lat;lon;timestamp;P1;durP1;ratioP1;P2;durP2;ratioP2
48651;SDS011;34442;52.362;-1.302;2022-12-18T00:01:12;7.43;;;2.72;;
48651;SDS011;34442;52.362;-1.302;2022-12-18T00:03:42;5.45;;;3.13;;
48651;SDS011;34442;52.362;-1.302;2022-12-18T00:06:08;7.55;;;3.30;;
48651;SDS011;34442;52.362;-1.302;2022-12-18T00:08:34;7.40;;;3.47;;
48651;SDS011;34442;52.362;-1.302;2022-12-18T00:11:06;5.07;;;2.70;;
48651;SDS011;34442;52.362;-1.302;2022-12-18T00:13:33;5.60;;;2.92;;
48651;SDS011;34442;52.362;-1.302;2022-12-18T00:16:02;6.63;;;3.15;;
48651;SDS011;34442;52.362;-1.302;2022-12-18T00:18:33;7.65;;;3.70;;
48651;SDS011;34442;52.362;-1.302;2022-12-18T00:20:59;6.20;;;2.70;;
48651;SDS011;34442;52.362;-1.302;2022-12-18T00:23:27;7.13;;;2.92;;
48651;SDS011;34442;52.362;-1.302;2022-12-18T00:25:52;7.95;;;2.63;;
48651;SDS011;34442;52.362;-1.302;2022-12-18T00:28:18;4.82;;;2.40;;
48651;SDS011;34442;52.362;-1.302;2022-12-18T00:30:43;4.57;;;2.63;;
48651;SDS011;34442;52.362;-1.302;2022-12-18T00:33:09;5.47;;;2.63;;
48651;SDS011;34442;52.362;-1.302;2022-12-18T00:35:34;4.85;;;2.33;;
48651;SDS011;34442;52.362;-1.302;2022-12-18T00:37:59;6.97;;;3.05;;
48651;SDS011;34442;52.362;-1.302;2022-12-18T00:40:25;5.10;;;2.58;;
48651;SDS011;34442;52.362;-1.302;2022-12-18T00:42:50;4.78;;;2.30;;
48651;SDS011;34442;52.362;-1.302;2022-12-18T00:45:25;5.38;;;2.80;;
48651;SDS011;34442;52.362;-1.302;2022-12-18T00:47:53;6.15;;;2.92;;
48651;SDS011;34442;52.362;-1.302;2022-12-18T00:50:19;5.60;;;2.75;;
48651;SDS011;34442;52.362;-1.302;2022-12-18T00:52:45;6.32;;;2.95;;
48651;SDS011;34442;52.362;-1.302;2022-12-18T00:55:10;5.70;;;2.63;;
48651;SDS011;34442;52.362;-1.302;2022-12-18T00:57:37;5.60;;;2.70;;
48651;SDS011;34442;52.362;-1.302;2022-12-18T01:00:03;5.47;;;2.85;;
48651;SDS011;34442;52.362;-1.302;2022-12-18T01:02:29;5.85;;;2.90;;
48651;SDS011;34442;52.362;-1.302;2022-12-18T01:04:58;7.20;;;3.28;;
48651;SDS011;34442;52.362;-1.302;2022-12-18T01:07:23;6.80;;;3.25;;
48651;SDS011;34442;52.362;-1.302;2022-12-18T01:09:49;6.15;;;3.15;;
48651;SDS011;34442;52.362;-1.302;2022-12-18T01:12:14;6.88;;;3.10;;
48651;SDS011;34442;52.362;-1.302;2022-12-18T01:14:39;6.35;;;3.05;;
48651;SDS011;34442;52.362;-1.302;2022-12-18T01:17:05;8.00;;;3.05;;
48651;SDS011;34442;52.362;-1.302;2022-12-18T01:19:30;7.38;;;3.55;;
48651;SDS011;34442;52.362;-1.302;2022-12-18T01:21:56;7.13;;;3.28;;
48651;SDS011;34442;52.362;-1.302;2022-12-18T01:24:22;4.40;;;2.45;;
48651;SDS011;34442;52.362;-1.302;2022-12-18T01:26:47;5.85;;;2.72;;
48651;SDS011;34442;52.362;-1.302;2022-12-18T01:29:12;5.45;;;2.50;;
48651;SDS011;34442;52.362;-1.302;2022-12-18T01:31:38;5.88;;;3.42;;
48651;SDS011;34442;52.362;-1.302;2022-12-18T01:34:04;5.03;;;2.85;;
48651;SDS011;34442;52.362;-1.302;2022-12-18T01:36:31;5.20;;;2.38;;
48651;SDS011;34442;52.362;-1.302;2022-12-18T01:39:02;5.93;;;2.55;;
48651;SDS011;34442;52.362;-1.302;2022-12-18T01:41:30;8.68;;;3.58;;
48651;SDS011;34442;52.362;-1.302;2022-12-18T01:49:56;6.45;;;2.85;;
48651;SDS011;34442;52.362;-1.302;2022-12-18T01:52:24;5.10;;;2.42;;
48651;SDS011;34442;52.362;-1.302;2022-12-18T01:54:51;5.38;;;2.53;;
48651;SDS011;34442;52.362;-1.302;2022-12-18T01:57:17;7.50;;;3.45;;
48651;SDS011;34442;52.362;-1.302;2022-12-18T01:59:43;6.15;;;3.20;;
48651;SDS011;34442;52.362;-1.302;2022-12-18T02:02:12;6.38;;;3.22;;
48651;SDS011;34442;52.362;-1.302;2022-12-18T02:04:39;7.57;;;3.70;;
48651;SDS011;34442;52.362;-1.302;2022-12-18T02:09:34;7.55;;;3.60;;
48651;SDS011;34442;52.362;-1.302;2022-12-18T02:12:16;7.00;;;3.45;;
48651;SDS011;34442;52.362;-1.302;2022-12-18T02:14:45;6.53;;;3.38;;
48651;SDS011;34442;52.362;-1.302;2022-12-18T02:17:21;9.80;;;4.50;;
48651;SDS011;34442;52.362;-1.302;2022-12-18T02:22:37;6.85;;;3.55;;
48651;SDS011;34442;52.362;-1.302;2022-12-18T02:28:03;9.07;;;4.07;;
48651;SDS011;34442;52.362;-1.302;2022-12-18T02:30:34;10.43;;;4.47;;
48651;SDS011;34442;52.362;-1.302;2022-12-18T02:33:04;8.80;;;3.65;;
48651;SDS011;34442;52.362;-1.302;2022-12-18T02:35:32;9.25;;;4.35;;
48651;SDS011;34442;52.362;-1.302;2022-12-18T02:37:59;9.88;;;3.95;;
48651;SDS011;34442;52.362;-1.302;2022-12-18T02:40:25;8.77;;;3.58;;
48651;SDS011;34442;52.362;-1.302;2022-12-18T02:42:53;8.27;;;3.72;;
48651;SDS011;34442;52.362;-1.302;2022-12-18T02:45:19;7.75;;;3.55;;
48651;SDS011;34442;52.362;-1.302;2022-12-18T02:47:45;7.60;;;3.90;;
48651;SDS011;34442;52.362;-1.302;2022-12-18T02:50:17;7.82;;;3.47;;
48651;SDS011;34442;52.362;-1.302;2022-12-18T02:53:38;8.50;;;3.90;;
48651;SDS011;34442;52.362;-1.302;2022-12-18T02:56:03;8.00;;;3.58;;
48651;SDS011;34442;52.362;-1.302;2022-12-18T03:04:12;9.85;;;5.20;;
48651;SDS011;34442;52.362;-1.302;2022-12-18T03:07:02;11.85;;;5.22;;
48651;SDS011;34442;52.362;-1.302;2022-12-18T03:09:38;11.32;;;5.18;;
48651;SDS011;34442;52.362;-1.302;2022-12-18T03:14:56;11.38;;;5.68;;
48651;SDS011;34442;52.362;-1.302;2022-12-18T03:17:33;14.77;;;7.95;;
48651;SDS011;34442;52.362;-1.302;2022-12-18T03:20:04;11.70;;;5.78;;
48651;SDS011;34442;52.362;-1.302;2022-12-18T03:22:33;11.60;;;6.25;;
48651;SDS011;34442;52.362;-1.302;2022-12-18T03:25:02;13.60;;;5.90;;
48651;SDS011;34442;52.362;-1.302;2022-12-18T03:27:30;11.55;;;6.15;;
48651;SDS011;34442;52.362;-1.302;2022-12-18T03:30:08;16.05;;;6.05;;
48651;SDS011;34442;52.362;-1.302;2022-12-18T03:32:47;12.90;;;5.97;;
48651;SDS011;34442;52.362;-1.302;2022-12-18T03:35:19;14.38;;;6.93;;
48651;SDS011;34442;52.362;-1.302;2022-12-18T03:37:49;15.13;;;6.68;;
48651;SDS011;34442;52.362;-1.302;2022-12-18T03:40:14;11.70;;;5.35;;
48651;SDS011;34442;52.362;-1.302;2022-12-18T03:48:16;10.80;;;4.68;;
48651;SDS011;34442;52.362;-1.302;2022-12-18T03:50:54;7.93;;;4.28;;
48651;SDS011;34442;52.362;-1.302;2022-12-18T03:53:36;11.52;;;5.57;;
48651;SDS011;34442;52.362;-1.302;2022-12-18T03:58:45;12.50;;;5.72;;
48651;SDS011;34442;52.362;-1.302;2022-12-18T04:01:15;10.18;;;5.07;;
48651;SDS011;34442;52.362;-1.302;2022-12-18T04:03:42;11.98;;;5.28;;
48651;SDS011;34442;52.362;-1.302;2022-12-18T04:06:11;12.43;;;5.60;;
48651;SDS011;34442;52.362;-1.302;2022-12-18T04:08:37;9.93;;;5.25;;
48651;SDS011;34442;52.362;-1.302;2022-12-18T04:11:04;12.43;;;5.82;;
48651;SDS011;34442;52.362;-1.302;2022-12-18T04:13:34;13.48;;;5.18;;
48651;SDS011;34442;52.362;-1.302;2022-12-18T04:16:02;11.57;;;5.40;;
48651;SDS011;34442;52.362;-1.302;2022-12-18T04:18:27;10.85;;;5.78;;
48651;SDS011;34442;52.362;-1.302;2022-12-18T04:20:53;12.43;;;6.18;;
48651;SDS011;34442;52.362;-1.302;2022-12-18T04:23:18;13.65;;;6.88;;
48651;SDS011;34442;52.362;-1.302;2022-12-18T04:25:44;15.25;;;6.68;;
48651;SDS011;34442;52.362;-1.302;2022-12-18T04:28:10;12.60;;;5.80;;
48651;SDS011;34442;52.362;-1.302;2022-12-18T04:30:35;20.80;;;10.68;;
48651;SDS011;34442;52.362;-1.302;2022-12-18T04:33:01;14.18;;;6.75;;
48651;SDS011;34442;52.362;-1.302;2022-12-18T04:35:26;11.70;;;6.45;;
48651;SDS011;34442;52.362;-1.302;2022-12-18T04:37:52;20.40;;;9.82;;
48651;SDS011;34442;52.362;-1.302;2022-12-18T04:40:17;19.15;;;9.38;;
48651;SDS011;34442;52.362;-1.302;2022-12-18T04:42:42;16.45;;;8.18;;
48651;SDS011;34442;52.362;-1.302;2022-12-18T04:45:08;18.23;;;8.80;;
48651;SDS011;34442;52.362;-1.302;2022-12-18T04:47:34;18.75;;;9.20;;
48651;SDS011;34442;52.362;-1.302;2022-12-18T04:49:59;23.15;;;11.00;;
48651;SDS011;34442;52.362;-1.302;2022-12-18T04:52:25;18.85;;;9.23;;
48651;SDS011;34442;52.362;-1.302;2022-12-18T04:54:50;22.20;;;10.50;;
48651;SDS011;34442;52.362;-1.302;2022-12-18T04:57:15;17.50;;;7.65;;
48651;SDS011;34442;52.362;-1.302;2022-12-18T04:59:42;21.05;;;9.80;;
48651;SDS011;34442;52.362;-1.302;2022-12-18T05:02:08;25.70;;;13.07;;
48651;SDS011;34442;52.362;-1.302;2022-12-18T05:04:33;22.40;;;12.00;;
48651;SDS011;34442;52.362;-1.302;2022-12-18T05:06:59;20.88;;;10.32;;
48651;SDS011;34442;52.362;-1.302;2022-12-18T05:09:24;21.95;;;9.68;;
48651;SDS011;34442;52.362;-1.302;2022-12-18T05:11:49;23.70;;;11.15;;
48651;SDS011;34442;52.362;-1.302;2022-12-18T05:14:15;24.08;;;10.73;;
48651;SDS011;34442;52.362;-1.302;2022-12-18T05:16:40;22.70;;;9.38;;
48651;SDS011;34442;52.362;-1.302;2022-12-18T05:19:06;19.77;;;9.13;;
48651;SDS011;34442;52.362;-1.302;2022-12-18T05:21:31;19.00;;;9.00;;
48651;SDS011;34442;52.362;-1.302;2022-12-18T05:23:56;22.58;;;10.23;;
48651;SDS011;34442;52.362;-1.302;2022-12-18T05:26:22;18.38;;;9.07;;
48651;SDS011;34442;52.362;-1.302;2022-12-18T05:28:47;24.60;;;10.25;;
48651;SDS011;34442;52.362;-1.302;2022-12-18T05:31:13;22.67;;;11.30;;
48651;SDS011;34442;52.362;-1.302;2022-12-18T05:33:39;22.45;;;10.32;;
48651;SDS011;34442;52.362;-1.302;2022-12-18T05:36:05;18.80;;;8.73;;
48651;SDS011;34442;52.362;-1.302;2022-12-18T05:38:33;18.83;;;9.93;;
48651;SDS011;34442;52.362;-1.302;2022-12-18T05:41:00;16.23;;;8.02;;
48651;SDS011;34442;52.362;-1.302;2022-12-18T05:43:26;24.30;;;10.52;;
48651;SDS011;34442;52.362;-1.302;2022-12-18T05:45:52;19.20;;;9.40;;
48651;SDS011;34442;52.362;-1.302;2022-12-18T05:48:18;25.73;;;12.68;;
48651;SDS011;34442;52.362;-1.302;2022-12-18T05:50:45;24.05;;;10.75;;
48651;SDS011;34442;52.362;-1.302;2022-12-18T05:53:12;21.85;;;11.35;;
48651;SDS011;34442;52.362;-1.302;2022-12-18T05:55:39;19.60;;;8.98;;
48651;SDS011;34442;52.362;-1.302;2022-12-18T05:58:06;18.73;;;9.20;;
48651;SDS011;34442;52.362;-1.302;2022-12-18T06:00:33;20.95;;;9.95;;
48651;SDS011;34442;52.362;-1.302;2022-12-18T06:03:00;24.42;;;9.23;;
48651;SDS011;34442;52.362;-1.302;2022-12-18T06:05:26;16.70;;;7.72;;
48651;SDS011;34442;52.362;-1.302;2022-12-18T06:07:52;15.95;;;8.80;;
48651;SDS011;34442;52.362;-1.302;2022-12-18T06:10:18;16.67;;;7.57;;
48651;SDS011;34442;52.362;-1.302;2022-12-18T06:12:43;13.90;;;7.30;;
48651;SDS011;34442;52.362;-1.302;2022-12-18T06:15:09;20.73;;;9.00;;
48651;SDS011;34442;52.362;-1.302;2022-12-18T06:17:36;17.20;;;8.90;;
48651;SDS011;34442;52.362;-1.302;2022-12-18T06:20:02;15.60;;;8.15;;
48651;SDS011;34442;52.362;-1.302;2022-12-18T06:22:30;15.55;;;8.05;;
48651;SDS011;34442;52.362;-1.302;2022-12-18T06:24:56;22.23;;;11.70;;
48651;SDS011;34442;52.362;-1.302;2022-12-18T06:27:21;19.27;;;9.57;;
48651;SDS011;34442;52.362;-1.302;2022-12-18T06:29:47;25.80;;;11.68;;
48651;SDS011;34442;52.362;-1.302;2022-12-18T06:32:12;18.42;;;8.02;;
48651;SDS011;34442;52.362;-1.302;2022-12-18T06:34:38;25.70;;;12.20;;
48651;SDS011;34442;52.362;-1.302;2022-12-18T06:37:03;20.40;;;8.65;;
48651;SDS011;34442;52.362;-1.302;2022-12-18T06:39:29;21.65;;;9.77;;
48651;SDS011;34442;52.362;-1.302;2022-12-18T06:41:54;18.85;;;7.45;;
48651;SDS011;34442;52.362;-1.302;2022-12-18T06:44:20;19.20;;;8.38;;
48651;SDS011;34442;52.362;-1.302;2022-12-18T06:46:45;15.98;;;7.40;;
48651;SDS011;34442;52.362;-1.302;2022-12-18T06:49:11;18.08;;;8.63;;
48651;SDS011;34442;52.362;-1.302;2022-12-18T06:51:36;20.65;;;9.93;;
48651;SDS011;34442;52.362;-1.302;2022-12-18T06:54:02;18.42;;;8.32;;
48651;SDS011;34442;52.362;-1.302;2022-12-18T06:56:28;21.85;;;9.35;;
48651;SDS011;34442;52.362;-1.302;2022-12-18T06:58:53;25.48;;;10.60;;
48651;SDS011;34442;52.362;-1.302;2022-12-18T07:01:19;30.38;;;14.82;;
48651;SDS011;34442;52.362;-1.302;2022-12-18T07:03:44;26.55;;;11.63;;
48651;SDS011;34442;52.362;-1.302;2022-12-18T07:06:13;25.65;;;11.27;;
48651;SDS011;34442;52.362;-1.302;2022-12-18T07:08:40;19.40;;;9.32;;
48651;SDS011;34442;52.362;-1.302;2022-12-18T07:11:06;24.10;;;10.02;;
48651;SDS011;34442;52.362;-1.302;2022-12-18T07:13:32;23.67;;;10.20;;
48651;SDS011;34442;52.362;-1.302;2022-12-18T07:16:10;21.02;;;10.07;;
48651;SDS011;34442;52.362;-1.302;2022-12-18T07:18:37;24.55;;;11.68;;
48651;SDS011;34442;52.362;-1.302;2022-12-18T07:21:04;27.55;;;11.23;;
48651;SDS011;34442;52.362;-1.302;2022-12-18T07:23:31;20.02;;;9.57;;
48651;SDS011;34442;52.362;-1.302;2022-12-18T07:26:00;18.15;;;8.00;;
48651;SDS011;34442;52.362;-1.302;2022-12-18T07:28:27;23.27;;;10.60;;
48651;SDS011;34442;52.362;-1.302;2022-12-18T07:30:52;21.27;;;9.95;;
48651;SDS011;34442;52.362;-1.302;2022-12-18T07:33:17;23.50;;;9.50;;
48651;SDS011;34442;52.362;-1.302;2022-12-18T07:35:43;18.60;;;8.18;;
48651;SDS011;34442;52.362;-1.302;2022-12-18T07:38:08;23.48;;;9.00;;
48651;SDS011;34442;52.362;-1.302;2022-12-18T07:40:34;17.30;;;7.03;;
48651;SDS011;34442;52.362;-1.302;2022-12-18T07:42:59;15.00;;;6.90;;
48651;SDS011;34442;52.362;-1.302;2022-12-18T07:45:25;14.70;;;6.38;;
48651;SDS011;34442;52.362;-1.302;2022-12-18T07:47:50;13.95;;;7.38;;
48651;SDS011;34442;52.362;-1.302;2022-12-18T07:50:15;16.63;;;8.25;;
48651;SDS011;34442;52.362;-1.302;2022-12-18T07:52:41;20.83;;;9.40;;
48651;SDS011;34442;52.362;-1.302;2022-12-18T07:55:06;18.05;;;8.25;;
48651;SDS011;34442;52.362;-1.302;2022-12-18T07:57:32;13.25;;;5.85;;
48651;SDS011;34442;52.362;-1.302;2022-12-18T07:59:57;12.93;;;6.57;;
48651;SDS011;34442;52.362;-1.302;2022-12-18T08:02:23;16.05;;;6.45;;
48651;SDS011;34442;52.362;-1.302;2022-12-18T08:04:48;14.48;;;7.00;;
48651;SDS011;34442;52.362;-1.302;2022-12-18T08:07:13;15.98;;;7.22;;
48651;SDS011;34442;52.362;-1.302;2022-12-18T08:09:39;11.40;;;5.68;;
48651;SDS011;34442;52.362;-1.302;2022-12-18T08:12:04;13.73;;;5.60;;
48651;SDS011;34442;52.362;-1.302;2022-12-18T08:14:30;18.45;;;7.15;;
48651;SDS011;34442;52.362;-1.302;2022-12-18T08:16:55;13.65;;;7.05;;
48651;SDS011;34442;52.362;-1.302;2022-12-18T08:19:21;13.45;;;5.55;;
48651;SDS011;34442;52.362;-1.302;2022-12-18T08:21:46;12.27;;;5.18;;
48651;SDS011;34442;52.362;-1.302;2022-12-18T08:24:12;12.02;;;6.30;;
48651;SDS011;34442;52.362;-1.302;2022-12-18T08:26:37;10.20;;;4.57;;
48651;SDS011;34442;52.362;-1.302;2022-12-18T08:29:02;11.48;;;5.15;;
48651;SDS011;34442;52.362;-1.302;2022-12-18T08:31:28;10.18;;;4.50;;
48651;SDS011;34442;52.362;-1.302;2022-12-18T08:33:55;11.30;;;4.72;;
48651;SDS011;34442;52.362;-1.302;2022-12-18T08:36:21;11.98;;;5.10;;
48651;SDS011;34442;52.362;-1.302;2022-12-18T08:38:47;9.70;;;4.80;;
48651;SDS011;34442;52.362;-1.302;2022-12-18T08:41:13;14.27;;;6.10;;
48651;SDS011;34442;52.362;-1.302;2022-12-18T08:43:40;9.52;;;4.57;;
48651;SDS011;34442;52.362;-1.302;2022-12-18T08:46:25;10.73;;;4.88;;
48651;SDS011;34442;52.362;-1.302;2022-12-18T08:48:52;11.80;;;4.97;;
48651;SDS011;34442;52.362;-1.302;2022-12-18T08:51:19;10.98;;;5.07;;
48651;SDS011;34442;52.362;-1.302;2022-12-18T08:53:45;10.07;;;4.35;;
48651;SDS011;34442;52.362;-1.302;2022-12-18T08:56:12;15.73;;;6.82;;
48651;SDS011;34442;52.362;-1.302;2022-12-18T08:58:38;13.65;;;5.65;;
48651;SDS011;34442;52.362;-1.302;2022-12-18T09:01:04;13.45;;;5.00;;
48651;SDS011;34442;52.362;-1.302;2022-12-18T09:03:31;12.30;;;5.25;;
48651;SDS011;34442;52.362;-1.302;2022-12-18T09:05:56;14.13;;;6.88;;
48651;SDS011;34442;52.362;-1.302;2022-12-18T09:08:21;12.50;;;6.63;;
48651;SDS011;34442;52.362;-1.302;2022-12-18T09:10:48;13.80;;;6.72;;
48651;SDS011;34442;52.362;-1.302;2022-12-18T09:13:15;10.68;;;4.70;;
48651;SDS011;34442;52.362;-1.302;2022-12-18T09:15:42;11.85;;;6.10;;
48651;SDS011;34442;52.362;-1.302;2022-12-18T09:18:28;13.30;;;5.40;;
48651;SDS011;34442;52.362;-1.302;2022-12-18T09:20:53;11.23;;;4.88;;
48651;SDS011;34442;52.362;-1.302;2022-12-18T09:23:19;9.35;;;4.28;;
48651;SDS011;34442;52.362;-1.302;2022-12-18T09:25:44;10.48;;;4.93;;
48651;SDS011;34442;52.362;-1.302;2022-12-18T09:28:16;9.27;;;4.40;;
48651;SDS011;34442;52.362;-1.302;2022-12-18T09:30:44;8.93;;;4.07;;
48651;SDS011;34442;52.362;-1.302;2022-12-18T09:33:11;12.02;;;4.15;;
48651;SDS011;34442;52.362;-1.302;2022-12-18T09:35:40;11.27;;;4.55;;
48651;SDS011;34442;52.362;-1.302;2022-12-18T09:38:07;8.80;;;4.10;;
48651;SDS011;34442;52.362;-1.302;2022-12-18T09:40:41;11.07;;;4.45;;
48651;SDS011;34442;52.362;-1.302;2022-12-18T09:43:17;10.43;;;4.22;;
48651;SDS011;34442;52.362;-1.302;2022-12-18T09:45:46;13.27;;;5.95;;
48651;SDS011;34442;52.362;-1.302;2022-12-18T09:48:21;12.02;;;4.80;;
48651;SDS011;34442;52.362;-1.302;2022-12-18T09:50:51;12.52;;;5.43;;
48651;SDS011;34442;52.362;-1.302;2022-12-18T09:53:21;12.80;;;5.93;;
48651;SDS011;34442;52.362;-1.302;2022-12-18T09:55:51;14.85;;;6.53;;
48651;SDS011;34442;52.362;-1.302;2022-12-18T10:00:58;11.70;;;4.88;;
48651;SDS011;34442;52.362;-1.302;2022-12-18T10:03:24;9.23;;;4.65;;
48651;SDS011;34442;52.362;-1.302;2022-12-18T10:06:04;14.32;;;6.82;;
48651;SDS011;34442;52.362;-1.302;2022-12-18T10:14:20;20.45;;;8.27;;
48651;SDS011;34442;52.362;-1.302;2022-12-18T10:17:09;15.18;;;7.82;;
48651;SDS011;34442;52.362;-1.302;2022-12-18T10:19:52;18.38;;;7.55;;
48651;SDS011;34442;52.362;-1.302;2022-12-18T10:28:12;14.35;;;7.22;;
48651;SDS011;34442;52.362;-1.302;2022-12-18T10:30:40;12.45;;;6.75;;
48651;SDS011;34442;52.362;-1.302;2022-12-18T10:33:10;14.45;;;6.97;;
48651;SDS011;34442;52.362;-1.302;2022-12-18T10:35:40;20.55;;;8.65;;
48651;SDS011;34442;52.362;-1.302;2022-12-18T10:43:36;17.85;;;8.77;;
48651;SDS011;34442;52.362;-1.302;2022-12-18T10:51:33;15.00;;;7.13;;
48651;SDS011;34442;52.362;-1.302;2022-12-18T10:56:39;16.70;;;8.82;;
48651;SDS011;34442;52.362;-1.302;2022-12-18T10:59:10;15.50;;;7.30;;
48651;SDS011;34442;52.362;-1.302;2022-12-18T11:01:48;13.27;;;6.15;;
48651;SDS011;34442;52.362;-1.302;2022-12-18T11:04:25;15.32;;;8.02;;
48651;SDS011;34442;52.362;-1.302;2022-12-18T11:09:26;14.60;;;8.57;;
48651;SDS011;34442;52.362;-1.302;2022-12-18T11:11:56;21.08;;;9.25;;
48651;SDS011;34442;52.362;-1.302;2022-12-18T11:14:34;13.20;;;6.00;;
48651;SDS011;34442;52.362;-1.302;2022-12-18T11:17:21;17.90;;;8.10;;
48651;SDS011;34442;52.362;-1.302;2022-12-18T11:19:56;10.88;;;5.78;;
48651;SDS011;34442;52.362;-1.302;2022-12-18T11:22:32;13.38;;;6.10;;
48651;SDS011;34442;52.362;-1.302;2022-12-18T11:27:37;14.13;;;6.03;;
48651;SDS011;34442;52.362;-1.302;2022-12-18T11:30:24;13.23;;;5.00;;
48651;SDS011;34442;52.362;-1.302;2022-12-18T11:33:15;8.57;;;4.50;;
48651;SDS011;34442;52.362;-1.302;2022-12-18T11:36:01;13.02;;;7.57;;
48651;SDS011;34442;52.362;-1.302;2022-12-18T11:38:33;20.25;;;8.80;;
48651;SDS011;34442;52.362;-1.302;2022-12-18T11:41:04;21.85;;;9.77;;
48651;SDS011;34442;52.362;-1.302;2022-12-18T11:43:38;16.77;;;8.57;;
48651;SDS011;34442;52.362;-1.302;2022-12-18T11:46:13;20.25;;;10.18;;
48651;SDS011;34442;52.362;-1.302;2022-12-18T11:48:52;17.98;;;9.13;;
48651;SDS011;34442;52.362;-1.302;2022-12-18T11:51:28;15.93;;;7.57;;
48651;SDS011;34442;52.362;-1.302;2022-12-18T11:53:58;17.70;;;8.15;;
48651;SDS011;34442;52.362;-1.302;2022-12-18T11:56:39;17.45;;;8.20;;
48651;SDS011;34442;52.362;-1.302;2022-12-18T12:01:56;18.17;;;8.80;;
48651;SDS011;34442;52.362;-1.302;2022-12-18T12:09:57;20.67;;;9.90;;
48651;SDS011;34442;52.362;-1.302;2022-12-18T12:15:49;13.10;;;6.57;;
48651;SDS011;34442;52.362;-1.302;2022-12-18T12:32:19;12.95;;;6.10;;
48651;SDS011;34442;52.362;-1.302;2022-12-18T12:40:11;16.77;;;8.60;;
48651;SDS011;34442;52.362;-1.302;2022-12-18T12:42:41;13.55;;;6.50;;
48651;SDS011;34442;52.362;-1.302;2022-12-18T12:46:05;14.95;;;8.05;;
48651;SDS011;34442;52.362;-1.302;2022-12-18T12:51:17;18.95;;;9.90;;
48651;SDS011;34442;52.362;-1.302;2022-12-18T12:53:46;15.57;;;8.00;;
48651;SDS011;34442;52.362;-1.302;2022-12-18T12:56:14;15.25;;;7.53;;
48651;SDS011;34442;52.362;-1.302;2022-12-18T12:58:44;18.60;;;9.40;;
48651;SDS011;34442;52.362;-1.302;2022-12-18T13:07:38;15.30;;;8.15;;
48651;SDS011;34442;52.362;-1.302;2022-12-18T13:13:16;16.88;;;8.27;;
48651;SDS011;34442;52.362;-1.302;2022-12-18T13:16:05;17.05;;;9.43;;
48651;SDS011;34442;52.362;-1.302;2022-12-18T13:18:56;13.95;;;6.55;;
48651;SDS011;34442;52.362;-1.302;2022-12-18T13:21:44;13.75;;;7.10;;
48651;SDS011;34442;52.362;-1.302;2022-12-18T13:24:38;15.88;;;8.40;;
48651;SDS011;34442;52.362;-1.302;2022-12-18T13:36:13;15.35;;;7.07;;
48651;SDS011;34442;52.362;-1.302;2022-12-18T13:45:41;14.18;;;7.00;;
48651;SDS011;34442;52.362;-1.302;2022-12-18T13:48:31;15.18;;;7.60;;
48651;SDS011;34442;52.362;-1.302;2022-12-18T13:51:21;17.08;;;9.07;;
48651;SDS011;34442;52.362;-1.302;2022-12-18T13:53:49;16.50;;;9.13;;
48651;SDS011;34442;52.362;-1.302;2022-12-18T13:56:28;11.95;;;6.68;;
48651;SDS011;34442;52.362;-1.302;2022-12-18T14:01:43;15.07;;;8.52;;
48651;SDS011;34442;52.362;-1.302;2022-12-18T14:04:11;13.10;;;6.05;;
48651;SDS011;34442;52.362;-1.302;2022-12-18T14:06:46;13.05;;;6.95;;
48651;SDS011;34442;52.362;-1.302;2022-12-18T14:09:14;16.95;;;9.60;;
48651;SDS011;34442;52.362;-1.302;2022-12-18T14:11:45;14.25;;;6.25;;
48651;SDS011;34442;52.362;-1.302;2022-12-18T14:14:13;13.00;;;6.57;;
48651;SDS011;34442;52.362;-1.302;2022-12-18T14:16:41;12.75;;;6.50;;
48651;SDS011;34442;52.362;-1.302;2022-12-18T14:19:08;13.07;;;6.90;;
48651;SDS011;34442;52.362;-1.302;2022-12-18T14:21:39;14.98;;;7.55;;
48651;SDS011;34442;52.362;-1.302;2022-12-18T14:26:33;15.15;;;7.60;;
48651;SDS011;34442;52.362;-1.302;2022-12-18T14:29:00;13.10;;;7.35;;
48651;SDS011;34442;52.362;-1.302;2022-12-18T14:31:42;15.07;;;8.02;;
48651;SDS011;34442;52.362;-1.302;2022-12-18T14:34:08;13.85;;;7.93;;
48651;SDS011;34442;52.362;-1.302;2022-12-18T14:36:40;14.13;;;6.83;;
48651;SDS011;34442;52.362;-1.302;2022-12-18T14:39:13;14.18;;;6.22;;
48651;SDS011;34442;52.362;-1.302;2022-12-18T14:41:42;12.95;;;6.18;;
48651;SDS011;34442;52.362;-1.302;2022-12-18T14:44:10;16.80;;;9.48;;
48651;SDS011;34442;52.362;-1.302;2022-12-18T14:51:51;11.13;;;6.50;;
48651;SDS011;34442;52.362;-1.302;2022-12-18T14:54:22;12.65;;;7.70;;
48651;SDS011;34442;52.362;-1.302;2022-12-18T14:57:06;13.50;;;7.65;;
48651;SDS011;34442;52.362;-1.302;2022-12-18T14:59:40;10.52;;;6.28;;
48651;SDS011;34442;52.362;-1.302;2022-12-18T15:02:25;12.95;;;7.93;;
48651;SDS011;34442;52.362;-1.302;2022-12-18T15:04:59;14.00;;;6.93;;
48651;SDS011;34442;52.362;-1.302;2022-12-18T15:12:40;13.23;;;7.13;;
48651;SDS011;34442;52.362;-1.302;2022-12-18T15:26:01;10.65;;;4.70;;
48651;SDS011;34442;52.362;-1.302;2022-12-18T15:28:37;10.60;;;6.35;;
48651;SDS011;34442;52.362;-1.302;2022-12-18T15:33:34;9.90;;;5.30;;
48651;SDS011;34442;52.362;-1.302;2022-12-18T15:36:03;9.57;;;4.95;;
48651;SDS011;34442;52.362;-1.302;2022-12-18T15:38:30;10.65;;;6.28;;
48651;SDS011;34442;52.362;-1.302;2022-12-18T15:40:56;10.52;;;5.40;;
48651;SDS011;34442;52.362;-1.302;2022-12-18T15:43:23;6.75;;;4.20;;
48651;SDS011;34442;52.362;-1.302;2022-12-18T15:45:58;10.32;;;5.93;;
48651;SDS011;34442;52.362;-1.302;2022-12-18T15:48:45;12.05;;;6.90;;
48651;SDS011;34442;52.362;-1.302;2022-12-18T15:51:23;7.65;;;4.25;;
48651;SDS011;34442;52.362;-1.302;2022-12-18T15:53:49;9.63;;;4.90;;
48651;SDS011;34442;52.362;-1.302;2022-12-18T15:56:16;8.13;;;3.90;;
48651;SDS011;34442;52.362;-1.302;2022-12-18T15:59:01;7.75;;;3.97;;
48651;SDS011;34442;52.362;-1.302;2022-12-18T16:01:28;7.35;;;3.55;;
48651;SDS011;34442;52.362;-1.302;2022-12-18T16:03:55;7.35;;;4.18;;
48651;SDS011;34442;52.362;-1.302;2022-12-18T16:06:21;6.15;;;3.22;;
48651;SDS011;34442;52.362;-1.302;2022-12-18T16:08:47;7.03;;;3.20;;
48651;SDS011;34442;52.362;-1.302;2022-12-18T16:14:03;5.90;;;3.03;;
48651;SDS011;34442;52.362;-1.302;2022-12-18T16:16:29;4.85;;;2.83;;
48651;SDS011;34442;52.362;-1.302;2022-12-18T16:18:54;8.00;;;3.67;;
48651;SDS011;34442;52.362;-1.302;2022-12-18T16:21:20;5.90;;;3.35;;
48651;SDS011;34442;52.362;-1.302;2022-12-18T16:23:45;7.28;;;3.33;;
48651;SDS011;34442;52.362;-1.302;2022-12-18T16:26:11;7.82;;;3.58;;
48651;SDS011;34442;52.362;-1.302;2022-12-18T16:28:36;6.50;;;2.40;;
48651;SDS011;34442;52.362;-1.302;2022-12-18T16:31:01;5.28;;;2.42;;
48651;SDS011;34442;52.362;-1.302;2022-12-18T16:33:27;4.43;;;2.53;;
48651;SDS011;34442;52.362;-1.302;2022-12-18T16:35:52;4.60;;;2.67;;
48651;SDS011;34442;52.362;-1.302;2022-12-18T16:38:18;5.07;;;2.63;;
48651;SDS011;34442;52.362;-1.302;2022-12-18T16:40:43;5.45;;;2.72;;
48651;SDS011;34442;52.362;-1.302;2022-12-18T16:43:28;5.05;;;2.63;;
48651;SDS011;34442;52.362;-1.302;2022-12-18T16:45:54;5.07;;;2.33;;
48651;SDS011;34442;52.362;-1.302;2022-12-18T16:48:22;5.22;;;2.63;;
48651;SDS011;34442;52.362;-1.302;2022-12-18T16:50:47;4.80;;;2.47;;
48651;SDS011;34442;52.362;-1.302;2022-12-18T16:53:13;5.03;;;3.15;;
48651;SDS011;34442;52.362;-1.302;2022-12-18T16:55:38;5.88;;;2.50;;
48651;SDS011;34442;52.362;-1.302;2022-12-18T16:58:03;5.47;;;2.63;;
48651;SDS011;34442;52.362;-1.302;2022-12-18T17:00:29;5.10;;;2.35;;
48651;SDS011;34442;52.362;-1.302;2022-12-18T17:02:54;3.88;;;2.00;;
48651;SDS011;34442;52.362;-1.302;2022-12-18T17:05:19;4.53;;;2.50;;
48651;SDS011;34442;52.362;-1.302;2022-12-18T17:07:45;6.15;;;3.20;;
48651;SDS011;34442;52.362;-1.302;2022-12-18T17:10:10;5.03;;;2.60;;